METAR Data
IDs: Format: Raw Decoded Include TAF

Data at: 2155 UTC 18 Sep 2018

KCZT 182135Z AUTO 15006KT 10SM BKN048 BKN060 32/21 A2988 RMK AO2 LTG DSNT S
KCZT 182115Z AUTO 16006KT 10SM SCT048 BKN060 32/22 A2989 RMK AO2
KCZT 182055Z AUTO 19007KT 10SM SCT048 SCT060 32/21 A2990 RMK AO2
KCZT 182035Z AUTO 20005KT 10SM SCT045 32/21 A2991 RMK AO2
KCZT 182015Z AUTO 18003KT 10SM SCT041 SCT048 SCT050 31/22 A2991 RMK AO2
KCZT 181955Z AUTO 16005KT 10SM SCT041 SCT050 BKN055 31/22 A2992 RMK AO2 LTG DSNT SW
KCZT 181935Z AUTO 14006KT 10SM SCT041 SCT050 SCT060 31/22 A2993 RMK AO2
KCZT 181915Z AUTO 16005KT 10SM SCT037 SCT044 SCT050 30/22 A2994 RMK AO2
KCZT 181855Z AUTO 16006KT 10SM SCT037 SCT045 30/22 A2995 RMK AO2 LTG DSNT S
KCZT 181835Z AUTO 15008KT 10SM SCT034 SCT047 31/22 A2996 RMK AO2
KCZT 181815Z AUTO 19009KT 10SM SCT034 SCT045 SCT055 30/22 A2997 RMK AO2
KCZT 181755Z AUTO 16006KT 10SM SCT029 SCT035 30/23 A2999 RMK AO2
KCZT 181735Z AUTO 17005KT 10SM BKN028 BKN035 28/23 A2999 RMK AO2
KCZT 181715Z AUTO 19006KT 10SM BKN026 28/23 A3000 RMK AO2
KCZT 181655Z AUTO 20006KT 10SM SCT026 27/23 A3001 RMK AO2
KCZT 181635Z AUTO 18007KT 10SM SCT020 SCT024 SCT032 27/23 A3001 RMK AO2
KCZT 181615Z AUTO 19004KT 10SM BKN020 BKN026 27/23 A3002 RMK AO2
KCZT 181555Z AUTO 19005KT 10SM BKN018 OVC023 27/23 A3002 RMK AO2
KCZT 181535Z AUTO 18007KT 10SM BKN016 OVC023 26/23 A3001 RMK AO2
KCZT 181515Z AUTO 18006KT 10SM SCT013 OVC021 26/24 A3001 RMK AO2
KCZT 181455Z AUTO 15005KT 10SM OVC017 25/25 A3001 RMK AO2
KCZT 181435Z AUTO 13004KT 10SM OVC017 25/25 A3001 RMK AO2
KCZT 181415Z AUTO 12003KT 10SM OVC015 25/25 A3001 RMK AO2
KCZT 181355Z AUTO 13004KT 10SM OVC015 24/24 A3000 RMK AO2
KCZT 181335Z AUTO 15003KT 10SM OVC015 25/25 A3000 RMK AO2
KCZT 181315Z AUTO 15007KT 10SM OVC013 25/25 A2999 RMK AO2
KCZT 181255Z AUTO 14004KT 10SM OVC013 24/24 A2999 RMK AO2
KCZT 181235Z AUTO 14004KT 10SM OVC013 24/24 A2999 RMK AO2
KCZT 181215Z AUTO 00000KT 10SM OVC013 24/24 A2998 RMK AO2
KCZT 181155Z AUTO 00000KT 10SM OVC011 24/24 A2998 RMK AO2
KCZT 181135Z AUTO 15003KT 10SM OVC011 24/24 A2997 RMK AO2
KCZT 181115Z AUTO 14004KT 10SM BKN013 BKN018 24/24 A2997 RMK AO2
KCZT 181055Z AUTO 13005KT 10SM OVC018 24/24 A2997 RMK AO2
KCZT 181035Z AUTO 14004KT 10SM BKN011 OVC017 24/24 A2996 RMK AO2
KCZT 181015Z AUTO 14004KT 7SM OVC011 24/24 A2996 RMK AO2
KCZT 180955Z AUTO 13003KT 7SM OVC009 24/24 A2996 RMK AO2
KCZT 180935Z AUTO 13003KT 7SM OVC009 24/24 A2996 RMK AO2
KCZT 180915Z AUTO 13004KT 10SM OVC009 25/25 A2996 RMK AO2
KCZT 180855Z AUTO 14004KT 10SM OVC009 25/25 A2996 RMK AO2
KCZT 180835Z AUTO 14005KT 10SM OVC009 25/25 A2996 RMK AO2
KCZT 180815Z AUTO 14006KT 10SM OVC009 25/25 A2996 RMK AO2 LTG DSNT W
KCZT 180755Z AUTO 15005KT 10SM OVC009 25/25 A2997 RMK AO2 LTG DSNT W
KCZT 180735Z AUTO 15005KT 10SM OVC009 25/25 A2997 RMK AO2
KCZT 180715Z AUTO 14004KT 10SM OVC009 24/24 A2997 RMK AO2 LTG DSNT W
KCZT 180655Z AUTO 13004KT 10SM OVC011 24/24 A2997 RMK AO2 LTG DSNT W
KCZT 180635Z AUTO 13004KT 10SM BKN011 24/24 A2997 RMK AO2
KCZT 180615Z AUTO 12003KT 10SM SCT013 24/24 A2997 RMK AO2
KCZT 180555Z AUTO 11003KT 10SM CLR 24/24 A2996 RMK AO2
KCZT 180535Z AUTO 11003KT 10SM CLR 24/24 A2996 RMK AO2
KCZT 180515Z AUTO 11004KT 10SM CLR 24/24 A2996 RMK AO2 LTG DSNT W
KCZT 180455Z AUTO 11003KT 10SM CLR 23/23 A2996 RMK AO2 LTG DSNT W
KCZT 180435Z AUTO 11004KT 10SM CLR 24/24 A2996 RMK AO2 LTG DSNT W
KCZT 180415Z AUTO 11004KT 10SM SCT043 24/24 A2996 RMK AO2
KCZT 180355Z AUTO 12003KT 10SM CLR 24/24 A2995 RMK AO2
KCZT 180335Z AUTO 00000KT 10SM CLR 23/23 A2995 RMK AO2 LTG DSNT S
KCZT 180315Z AUTO 08003KT 10SM CLR 23/23 A2995 RMK AO2
KCZT 180255Z AUTO 10004KT 10SM CLR 24/24 A2995 RMK AO2
KCZT 180235Z AUTO 10003KT 10SM CLR 24/23 A2995 RMK AO2
KCZT 180215Z AUTO 00000KT 10SM CLR 24/23 A2995 RMK AO2 LTG DSNT S
KCZT 180155Z AUTO 10003KT 10SM CLR 24/23 A2994 RMK AO2
KCZT 180135Z AUTO 10004KT 10SM CLR 25/23 A2993 RMK AO2
KCZT 180115Z AUTO 09004KT 10SM CLR 25/23 A2993 RMK AO2
KCZT 180055Z AUTO 10004KT 10SM CLR 25/23 A2992 RMK AO2 LTG DSNT S
KCZT 180035Z AUTO 09003KT 10SM CLR 25/23 A2991 RMK AO2 LTG DSNT N
KCZT 180015Z AUTO 00000KT 10SM CLR 25/23 A2991 RMK AO2 LTG DSNT W AND NW
KCZT 172355Z AUTO 00000KT 10SM CLR 25/23 A2990 RMK AO2 LTG DSNT W
KCZT 172335Z AUTO 00000KT 10SM SCT110 26/22 A2990 RMK AO2 LTG DSNT W
KCZT 172315Z AUTO 15003KT 10SM SCT110 26/22 A2988 RMK AO2 LTG DSNT SW THRU NE
KCZT 172255Z AUTO 15005KT 10SM VCTS CLR 25/23 A2989 RMK AO2 LTG DSNT ALQS P0003
KCZT 172235Z AUTO 15004KT 10SM VCTS SCT047 SCT070 SCT090 25/23 A2989 RMK AO2 LTG DSNT E SW AND NW P0003
KCZT 172215Z AUTO 15008KT 10SM -RA SCT045 BKN050 OVC085 23/22 A2991 RMK AO2 LTG DSNT E P0003
KCZT 172155Z AUTO 20014G20KT 5SM +RA SCT032 BKN055 OVC070 22/21 A2992 RMK AO2 P0001
KCZT 172135Z AUTO 18020G27KT 10SM VCTS SCT032 BKN044 OVC080 25/21 A2991 RMK AO2 LTG DSNT E THRU SW
KCZT 172115Z AUTO 00000KT 10SM SCT043 SCT055 OVC080 27/25 A2989 RMK AO2 LTG DSNT SE AND S
KCZT 172055Z AUTO 00000KT 10SM SCT045 SCT060 OVC080 27/24 A2989 RMK AO2 LTG DSNT SE AND S
KCZT 172035Z AUTO 00000KT 10SM SCT043 BKN055 OVC080 26/24 A2990 RMK AO2 LTG DSNT SE AND S
KCZT 172015Z AUTO 00000KT 10SM BKN039 OVC045 26/24 A2991 RMK AO2
KCZT 171955Z AUTO 23005KT 10SM BKN037 BKN044 OVC070 28/23 A2992 RMK AO2 LTG DSNT SE
KCZT 171935Z AUTO 13008KT 10SM BKN033 BKN041 OVC060 30/23 A2992 RMK AO2
KCZT 171915Z AUTO 11004KT 10SM BKN031 BKN039 30/23 A2994 RMK AO2
KCZT 171855Z AUTO 13007KT 10SM BKN029 BKN038 BKN044 31/23 A2995 RMK AO2
KCZT 171835Z AUTO 13009G14KT 10SM SCT027 SCT032 BKN045 30/23 A2996 RMK AO2
KCZT 171815Z AUTO 14007KT 10SM BKN025 BKN034 BKN045 30/23 A2996 RMK AO2
KCZT 171755Z AUTO 13006KT 10SM SCT023 BKN039 30/23 A2997 RMK AO2
KCZT 171735Z AUTO 14011KT 10SM BKN023 BKN027 BKN041 28/23 A2998 RMK AO2
KCZT 171715Z AUTO 13008KT 10SM SCT019 BKN026 BKN037 28/23 A2999 RMK AO2
KCZT 171655Z AUTO 16007KT 10SM BKN019 OVC031 27/23 A2999 RMK AO2
KCZT 171635Z AUTO 12006KT 10SM BKN015 BKN023 OVC030 27/24 A3000 RMK AO2
KCZT 171615Z AUTO 14007KT 10SM BKN015 OVC023 27/24 A2999 RMK AO2
KCZT 171555Z AUTO 14007KT 10SM BKN015 OVC020 27/23 A3000 RMK AO2
KCZT 171535Z AUTO 12007KT 10SM BKN013 OVC018 26/23 A2999 RMK AO2
KCZT 171515Z AUTO 12007KT 10SM BKN011 OVC016 26/23 A2999 RMK AO2
KCZT 171455Z AUTO 12005KT 10SM OVC009 26/24 A2998 RMK AO2
KCZT 171435Z AUTO 12007KT 10SM OVC009 25/24 A2997 RMK AO2
KCZT 171415Z AUTO 12006KT 10SM OVC007 24/24 A2997 RMK AO2
KCZT 171355Z AUTO 12006KT 10SM OVC007 23/23 A2997 RMK AO2
KCZT 171335Z AUTO 11004KT 10SM BKN005 OVC025 23/23 A2996 RMK AO2
KCZT 171315Z AUTO 12005KT 7SM BKN005 OVC025 23/23 A2996 RMK AO2
KCZT 171255Z AUTO 11003KT 7SM BKN005 BKN014 OVC090 23/23 A2995 RMK AO2
KCZT 171235Z AUTO 10003KT 7SM BKN014 OVC080 23/23 A2995 RMK AO2
KCZT 171215Z AUTO 11003KT 7SM SCT014 SCT020 BKN080 23/23 A2994 RMK AO2
KCZT 171155Z AUTO 11003KT 7SM CLR 23/23 A2994 RMK AO2
KCZT 171135Z AUTO 12004KT 10SM BKN007 BKN022 BKN085 23/23 A2994 RMK AO2
KCZT 171115Z AUTO 12003KT 10SM BKN009 BKN022 OVC085 23/23 A2993 RMK AO2
KCZT 171055Z AUTO 11003KT 10SM SCT009 BKN022 OVC085 23/23 A2993 RMK AO2
KCZT 171035Z AUTO 11003KT 10SM SCT020 OVC085 23/23 A2992 RMK AO2
KCZT 171015Z AUTO 12005KT 10SM OVC085 23/23 A2992 RMK AO2